Time;durP1;ratioP1;P1;durP2;ratioP2;P2;SDS_P1;SDS_P2;PMS_P1;PMS_P2;Temp;Humidity;BMP_temperature;BMP_pressure;BME280_temperature;BME280_humidity;BME280_pressure;Samples;Min_cycle;Max_cycle;Signal;HPM_P1;HPM_P2
2022/01/04 00:00:25;;;;;;;4.40;1.73;;;12.10;71.40;;;;;;4976846;28;20193;-77
2022/01/04 00:02:53;;;;;;;3.87;1.80;;;12.10;71.50;;;;;;4979473;28;20201;-78
2022/01/04 00:05:22;;;;;;;5.53;2.63;;;12.10;71.60;;;;;;4966894;28;20204;-78
2022/01/04 00:07:50;;;;;;;3.27;1.60;;;12.00;71.50;;;;;;4973159;28;20221;-79
2022/01/04 00:10:22;;;;;;;5.97;2.23;;;12.00;71.70;;;;;;4971522;28;20674;-78
2022/01/04 00:15:40;;;;;;;5.83;2.00;;;12.00;71.70;;;;;;4983089;28;20204;-78
2022/01/04 00:18:08;;;;;;;4.03;1.90;;;11.90;71.60;;;;;;4970031;28;20590;-79
2022/01/04 00:20:36;;;;;;;3.70;2.00;;;11.90;71.70;;;;;;4968670;28;20201;-78
2022/01/04 00:23:05;;;;;;;5.03;2.13;;;11.80;71.80;;;;;;4967149;28;20204;-79
2022/01/04 00:25:33;;;;;;;4.33;2.00;;;11.80;71.90;;;;;;4974508;28;20206;-79
2022/01/04 00:28:07;;;;;;;6.33;2.40;;;11.80;72.00;;;;;;4977506;28;20221;-78
2022/01/04 00:30:36;;;;;;;5.73;2.37;;;11.80;72.10;;;;;;4966015;28;20196;-78
2022/01/04 00:33:05;;;;;;;6.63;2.20;;;11.80;72.20;;;;;;4972536;28;20419;-78
2022/01/04 00:35:33;;;;;;;5.27;2.00;;;11.70;72.20;;;;;;4973282;28;20204;-78
2022/01/04 00:38:02;;;;;;;5.00;1.93;;;11.70;72.20;;;;;;4971191;28;20679;-79
2022/01/04 00:40:30;;;;;;;7.17;3.07;;;11.80;72.30;;;;;;4968072;28;20189;-78
2022/01/04 00:42:59;;;;;;;5.57;2.40;;;11.70;72.20;;;;;;4974943;28;20197;-79
2022/01/04 00:45:31;;;;;;;5.40;2.00;;;11.70;72.20;;;;;;4974904;28;20197;-79
2022/01/04 00:50:47;;;;;;;5.20;2.43;;;11.60;72.10;;;;;;4967562;28;20190;-78
2022/01/04 00:53:15;;;;;;;5.43;2.40;;;11.60;72.20;;;;;;4967285;28;20201;-78
2022/01/04 00:55:44;;;;;;;5.37;2.33;;;11.50;72.20;;;;;;4965398;28;20228;-78
2022/01/04 00:58:12;;;;;;;6.27;2.80;;;11.50;72.30;;;;;;4975235;28;20214;-79
2022/01/04 01:00:42;;;;;;;5.40;2.90;;;11.40;72.40;;;;;;4966317;28;20208;-79
2022/01/04 01:03:11;;;;;;;6.53;2.93;;;11.40;72.50;;;;;;4965263;28;20225;-78
2022/01/04 01:05:39;;;;;;;4.77;2.53;;;11.30;72.50;;;;;;4965498;28;20202;-78
2022/01/04 01:08:08;;;;;;;5.20;2.57;;;11.20;72.60;;;;;;4977543;28;20224;-78
2022/01/04 01:10:44;;;;;;;4.47;2.07;;;11.20;72.80;;;;;;4967908;28;20194;-79
2022/01/04 01:13:14;;;;;;;8.27;2.33;;;11.20;73.00;;;;;;4975838;28;20204;-79
2022/01/04 01:15:45;;;;;;;5.57;2.47;;;11.10;73.00;;;;;;4968244;28;20201;-78
2022/01/04 01:18:16;;;;;;;5.93;2.23;;;11.10;73.10;;;;;;4959505;28;20190;-79
2022/01/04 01:20:48;;;;;;;6.30;3.03;;;11.10;73.20;;;;;;4971578;28;20201;-79
2022/01/04 01:23:17;;;;;;;5.90;2.97;;;11.10;73.30;;;;;;4978439;28;20212;-79
2022/01/04 01:25:45;;;;;;;5.30;2.67;;;11.10;73.40;;;;;;4975131;28;20294;-79
2022/01/04 01:28:15;;;;;;;3.97;2.10;;;11.00;73.40;;;;;;4973678;28;20248;-79
2022/01/04 01:30:45;;;;;;;10.13;2.73;;;11.00;73.40;;;;;;4978799;28;20211;-78
2022/01/04 01:33:14;;;;;;;8.77;3.00;;;10.90;73.30;;;;;;4978970;28;20221;-78
2022/01/04 01:35:43;;;;;;;3.97;2.37;;;10.90;73.40;;;;;;4972078;28;20240;-78
2022/01/04 01:38:14;;;;;;;5.43;2.60;;;10.90;73.50;;;;;;4983368;28;20197;-78
2022/01/04 01:40:43;;;;;;;6.33;2.73;;;10.80;73.60;;;;;;4976305;28;20197;-80
2022/01/04 01:43:11;;;;;;;5.03;2.67;;;10.80;73.60;;;;;;4971230;28;20201;-79
2022/01/04 01:45:40;;;;;;;6.93;2.63;;;10.70;73.60;;;;;;4970822;28;20775;-78
2022/01/04 01:48:11;;;;;;;7.27;2.70;;;10.70;73.60;;;;;;4975047;28;20256;-78
2022/01/04 01:50:39;;;;;;;6.17;2.83;;;10.70;73.80;;;;;;4973800;28;20189;-78
2022/01/04 01:53:09;;;;;;;5.17;2.50;;;10.60;73.80;;;;;;4983600;28;20201;-78
2022/01/04 01:55:37;;;;;;;8.27;3.23;;;10.60;73.80;;;;;;4983150;28;20197;-78
2022/01/04 01:58:05;;;;;;;5.67;3.20;;;10.60;73.90;;;;;;4977887;28;20706;-78
2022/01/04 02:00:34;;;;;;;8.13;3.33;;;10.50;73.90;;;;;;4979111;28;20205;-78
2022/01/04 02:03:03;;;;;;;5.87;2.80;;;10.40;73.90;;;;;;4981991;28;20726;-78
2022/01/04 02:05:34;;;;;;;5.63;2.83;;;10.40;74.20;;;;;;4978484;28;20263;-78
2022/01/04 02:08:05;;;;;;;6.33;3.17;;;10.40;74.20;;;;;;4976422;28;20228;-78
2022/01/04 02:10:34;;;;;;;6.10;3.17;;;10.30;74.30;;;;;;4966612;28;20197;-78
2022/01/04 02:13:03;;;;;;;8.13;3.45;;;10.30;74.30;;;;;;4965856;28;20496;-78
2022/01/04 02:15:33;;;;;;;4.20;2.70;;;10.20;74.70;;;;;;4972504;28;20207;-78
2022/01/04 02:18:01;;;;;;;6.20;2.70;;;10.20;75.00;;;;;;4970966;28;20285;-78
2022/01/04 02:20:31;;;;;;;6.10;2.87;;;10.10;75.00;;;;;;4972185;28;20197;-79
2022/01/04 02:23:00;;;;;;;6.90;3.10;;;10.00;75.00;;;;;;4981081;28;20188;-78
2022/01/04 02:25:28;;;;;;;6.93;3.00;;;10.00;75.10;;;;;;4983314;28;20205;-78
2022/01/04 02:27:57;;;;;;;5.67;2.90;;;10.00;75.00;;;;;;4970978;28;20907;-78
2022/01/04 02:30:26;;;;;;;5.30;2.80;;;9.90;75.00;;;;;;4976748;28;20198;-78
2022/01/04 02:32:55;;;;;;;5.50;3.30;;;9.90;75.30;;;;;;4975939;28;20199;-78
2022/01/04 02:35:28;;;;;;;7.60;2.87;;;9.80;75.30;;;;;;4971496;28;20233;-79
2022/01/04 02:37:59;;;;;;;5.63;3.07;;;9.80;75.50;;;;;;4969046;28;20884;-78
2022/01/04 02:40:28;;;;;;;6.30;3.20;;;9.80;75.50;;;;;;4979396;28;20201;-78
2022/01/04 02:42:56;;;;;;;7.17;3.43;;;9.70;75.80;;;;;;4969609;28;20198;-78
2022/01/04 02:45:25;;;;;;;9.27;3.23;;;9.70;75.80;;;;;;4972195;28;20198;-78
2022/01/04 02:47:54;;;;;;;5.83;3.23;;;9.70;75.80;;;;;;4984812;28;20821;-77
2022/01/04 02:50:23;;;;;;;5.40;3.10;;;9.70;75.80;;;;;;4973521;28;20656;-78
2022/01/04 02:52:51;;;;;;;5.60;3.20;;;9.70;75.80;;;;;;4972773;28;20193;-78
2022/01/04 02:55:21;;;;;;;5.73;2.80;;;9.60;76.20;;;;;;4967593;28;20224;-78
2022/01/04 02:57:50;;;;;;;8.97;3.37;;;9.60;76.10;;;;;;4982004;28;20193;-78
2022/01/04 03:00:19;;;;;;;6.97;3.00;;;9.60;76.10;;;;;;4977360;28;20186;-79
2022/01/04 03:02:47;;;;;;;6.77;3.00;;;9.60;76.10;;;;;;4974260;28;20204;-78
2022/01/04 03:05:16;;;;;;;6.33;3.23;;;9.50;76.10;;;;;;4979242;28;20224;-78
2022/01/04 03:07:45;;;;;;;6.43;3.03;;;9.50;76.10;;;;;;4979450;28;20354;-78
2022/01/04 03:10:13;;;;;;;4.63;3.20;;;9.40;76.10;;;;;;4978766;28;20202;-78
2022/01/04 03:12:44;;;;;;;8.37;3.77;;;9.40;76.20;;;;;;4976128;28;20200;-78
2022/01/04 03:15:13;;;;;;;6.50;3.33;;;9.40;76.30;;;;;;4982092;28;20299;-78
2022/01/04 03:17:42;;;;;;;7.87;3.70;;;9.30;76.60;;;;;;4972870;28;20208;-78
2022/01/04 03:20:12;;;;;;;8.37;3.17;;;9.30;76.90;;;;;;4965273;28;20213;-78
2022/01/04 03:22:41;;;;;;;7.83;3.73;;;9.20;77.00;;;;;;4971477;28;20197;-78
2022/01/04 03:25:11;;;;;;;10.63;4.10;;;9.20;77.10;;;;;;4984308;28;20207;-78
2022/01/04 03:27:39;;;;;;;6.67;3.57;;;9.20;78.00;;;;;;4981776;28;20308;-78
2022/01/04 03:30:11;;;;;;;7.97;3.67;;;9.20;77.20;;;;;;4979686;28;20197;-77
2022/01/04 03:32:39;;;;;;;7.73;3.80;;;9.20;77.40;;;;;;4969598;28;20200;-78
2022/01/04 03:35:09;;;;;;;7.43;3.40;;;9.10;77.40;;;;;;4968084;28;20237;-77
2022/01/04 03:37:37;;;;;;;8.77;4.10;;;9.10;77.40;;;;;;4984680;28;20205;-78
2022/01/04 03:40:07;;;;;;;7.37;4.03;;;9.10;77.50;;;;;;4983865;28;20232;-78
2022/01/04 03:42:35;;;;;;;9.27;4.43;;;9.10;77.60;;;;;;4977823;28;20246;-80
2022/01/04 03:45:04;;;;;;;8.43;3.97;;;9.10;77.70;;;;;;4978783;28;20561;-78
2022/01/04 03:47:35;;;;;;;7.73;4.27;;;9.10;77.80;;;;;;4977136;28;20236;-78
2022/01/04 03:50:04;;;;;;;8.97;4.17;;;9.10;77.80;;;;;;4974705;28;20778;-78
2022/01/04 03:52:35;;;;;;;8.07;4.00;;;9.10;77.90;;;;;;4970934;28;20199;-79
2022/01/04 03:55:04;;;;;;;7.60;3.43;;;9.10;78.00;;;;;;4977040;28;20196;-78
2022/01/04 03:57:33;;;;;;;9.97;4.03;;;9.10;78.10;;;;;;4979046;28;20296;-77
2022/01/04 04:00:01;;;;;;;10.43;4.90;;;9.00;78.30;;;;;;4975841;28;20202;-77
2022/01/04 04:02:30;;;;;;;8.47;3.73;;;9.10;78.40;;;;;;4968882;28;20200;-77
2022/01/04 04:05:00;;;;;;;8.33;3.83;;;9.00;78.40;;;;;;4973750;28;20680;-77
2022/01/04 04:07:33;;;;;;;8.03;4.43;;;9.00;78.50;;;;;;4977224;28;20198;-77
2022/01/04 04:10:01;;;;;;;12.90;4.77;;;9.00;78.40;;;;;;4973435;28;21266;-78
2022/01/04 04:12:29;;;;;;;14.83;4.40;;;9.00;78.50;;;;;;4975418;28;20205;-78
2022/01/04 04:15:03;;;;;;;9.67;4.53;;;9.00;78.50;;;;;;4965607;28;20209;-78
2022/01/04 04:17:32;;;;;;;6.97;3.87;;;9.00;78.50;;;;;;4982634;28;20196;-78
2022/01/04 04:20:02;;;;;;;10.77;4.63;;;9.00;78.50;;;;;;4964282;28;20189;-79
2022/01/04 04:22:30;;;;;;;9.60;4.70;;;9.00;78.50;;;;;;4963295;28;20188;-78
2022/01/04 04:24:59;;;;;;;9.47;4.90;;;9.00;78.50;;;;;;4975178;28;20208;-78
2022/01/04 04:27:27;;;;;;;8.40;4.83;;;9.00;78.60;;;;;;4982785;28;20193;-78
2022/01/04 04:29:56;;;;;;;8.43;4.60;;;9.00;78.60;;;;;;4972536;28;20223;-78
2022/01/04 04:32:24;;;;;;;10.37;5.27;;;9.00;78.70;;;;;;4982739;28;20201;-78
2022/01/04 04:34:53;;;;;;;10.33;4.83;;;9.00;78.80;;;;;;4975083;28;20233;-78
2022/01/04 04:37:22;;;;;;;9.90;5.07;;;8.90;78.80;;;;;;4976802;28;20768;-78
2022/01/04 04:39:51;;;;;;;9.77;5.13;;;9.00;78.90;;;;;;4971049;28;20201;-79
2022/01/04 04:42:19;;;;;;;13.20;5.27;;;9.00;78.80;;;;;;4979482;28;20197;-78
2022/01/04 04:44:47;;;;;;;13.20;5.33;;;9.00;79.00;;;;;;4975914;28;20210;-78
2022/01/04 04:47:16;;;;;;;16.40;5.50;;;9.00;79.10;;;;;;4974945;28;20198;-78
2022/01/04 04:49:44;;;;;;;13.13;5.87;;;8.90;79.20;;;;;;4973509;28;20231;-78
2022/01/04 04:52:12;;;;;;;12.87;5.90;;;8.90;79.30;;;;;;4972447;28;20208;-79
2022/01/04 04:54:42;;;;;;;13.47;5.43;;;8.90;80.10;;;;;;4978140;28;20208;-78
2022/01/04 04:57:10;;;;;;;12.93;5.50;;;8.90;79.40;;;;;;4968711;28;20196;-78
2022/01/04 04:59:39;;;;;;;10.87;6.00;;;8.90;79.50;;;;;;4973990;28;20208;-78
2022/01/04 05:02:07;;;;;;;18.90;5.57;;;8.90;79.80;;;;;;4974156;28;20200;-78
2022/01/04 05:04:36;;;;;;;11.63;5.90;;;8.90;80.00;;;;;;4979480;28;20228;-78
2022/01/04 05:07:05;;;;;;;11.53;6.10;;;8.90;80.00;;;;;;4978209;28;20950;-79
2022/01/04 05:09:34;;;;;;;12.70;5.97;;;8.90;80.10;;;;;;4978198;28;20216;-79
2022/01/04 05:12:06;;;;;;;14.37;5.93;;;8.90;80.20;;;;;;4981649;28;20199;-78
2022/01/04 05:14:36;;;;;;;9.97;5.20;;;8.80;80.20;;;;;;4975270;28;20196;-78
2022/01/04 05:17:05;;;;;;;11.30;5.70;;;8.80;80.20;;;;;;4975697;28;20208;-78
2022/01/04 05:19:33;;;;;;;13.40;6.07;;;8.80;80.20;;;;;;4973615;28;20201;-78
2022/01/04 05:22:03;;;;;;;12.07;6.50;;;8.80;80.40;;;;;;4971782;28;20204;-78
2022/01/04 05:24:31;;;;;;;11.07;5.20;;;8.70;80.40;;;;;;4981341;28;20223;-79
2022/01/04 05:26:59;;;;;;;9.57;5.63;;;8.70;80.40;;;;;;4978500;28;20209;-78
2022/01/04 05:29:29;;;;;;;12.87;5.97;;;8.70;80.40;;;;;;4971130;28;20227;-78
2022/01/04 05:31:58;;;;;;;11.70;5.43;;;8.70;80.40;;;;;;4973163;28;20200;-78
2022/01/04 05:34:26;;;;;;;11.13;5.23;;;8.60;80.40;;;;;;4977870;28;20231;-78
2022/01/04 05:36:55;;;;;;;10.53;5.40;;;8.60;80.40;;;;;;4982817;28;20409;-78
2022/01/04 05:39:23;;;;;;;10.23;5.17;;;8.60;80.50;;;;;;4980724;28;20200;-79
2022/01/04 05:41:51;;;;;;;13.43;4.87;;;8.60;80.70;;;;;;4969890;28;20198;-79
2022/01/04 05:44:20;;;;;;;10.77;4.90;;;8.60;80.80;;;;;;4977812;28;20198;-79
2022/01/04 05:46:49;;;;;;;13.23;5.13;;;8.60;81.00;;;;;;4979174;28;20208;-78
2022/01/04 05:49:18;;;;;;;10.17;4.93;;;8.60;81.10;;;;;;4976229;28;20281;-78
2022/01/04 05:51:46;;;;;;;13.27;5.53;;;8.60;81.30;;;;;;4977182;28;20196;-79
2022/01/04 05:54:15;;;;;;;9.00;4.80;;;8.60;81.40;;;;;;4967528;28;20769;-78
2022/01/04 05:56:43;;;;;;;11.00;5.03;;;8.60;81.50;;;;;;4977986;28;20202;-79
2022/01/04 05:59:11;;;;;;;12.50;4.30;;;8.60;81.60;;;;;;4976799;28;20702;-78
2022/01/04 06:01:40;;;;;;;9.97;4.83;;;8.60;81.60;;;;;;4968107;28;20202;-78
2022/01/04 06:04:10;;;;;;;8.60;4.83;;;8.50;82.50;;;;;;4970871;28;20194;-78
2022/01/04 06:06:40;;;;;;;10.60;4.73;;;8.50;81.70;;;;;;4973586;28;20578;-78
2022/01/04 06:09:16;;;;;;;9.03;4.47;;;8.50;81.70;;;;;;4971374;28;20228;-77
2022/01/04 06:11:57;;;;;;;13.53;4.30;;;8.50;82.60;;;;;;4968207;28;20188;-77
2022/01/04 06:17:12;;;;;;;10.13;3.90;;;8.50;81.80;;;;;;4972928;28;20197;-77
2022/01/04 06:19:42;;;;;;;8.63;4.20;;;8.60;82.00;;;;;;4968173;28;20216;-77
2022/01/04 06:22:10;;;;;;;9.47;4.23;;;8.50;82.00;;;;;;4972282;28;20197;-77
2022/01/04 06:24:39;;;;;;;6.73;4.07;;;8.60;82.20;;;;;;4978984;28;20884;-77
2022/01/04 06:27:08;;;;;;;9.93;4.50;;;8.60;82.20;;;;;;4977628;28;20209;-78
2022/01/04 06:29:38;;;;;;;9.90;5.80;;;8.60;82.30;;;;;;4986724;28;20228;-78
2022/01/04 06:32:08;;;;;;;13.57;5.13;;;8.70;82.30;;;;;;4978935;28;20209;-78
2022/01/04 06:34:37;;;;;;;14.13;5.33;;;8.70;82.30;;;;;;4973653;28;21320;-80
2022/01/04 06:37:08;;;;;;;12.93;5.53;;;8.70;82.20;;;;;;4973700;28;20214;-77
2022/01/04 06:39:37;;;;;;;14.60;5.63;;;8.80;82.20;;;;;;4982639;28;20597;-76
2022/01/04 06:42:06;;;;;;;13.10;6.67;;;8.80;82.20;;;;;;4970227;28;20193;-79
2022/01/04 06:44:34;;;;;;;15.40;6.07;;;8.80;82.20;;;;;;4975110;28;20220;-79
2022/01/04 06:47:03;;;;;;;12.30;6.13;;;8.80;82.20;;;;;;4980201;28;20648;-77
2022/01/04 06:49:32;;;;;;;12.97;5.70;;;8.90;82.20;;;;;;4994293;28;20277;-80
2022/01/04 06:52:08;;;;;;;18.27;6.17;;;8.90;82.10;;;;;;4976840;28;20207;-79
2022/01/04 06:54:36;;;;;;;14.93;5.17;;;9.00;82.10;;;;;;4983686;28;20192;-77
2022/01/04 06:57:05;;;;;;;11.37;4.93;;;9.00;82.00;;;;;;4968946;28;20197;-77
2022/01/04 06:59:33;;;;;;;9.60;5.07;;;9.00;81.90;;;;;;4972152;28;20252;-78
2022/01/04 07:02:03;;;;;;;12.53;4.90;;;9.10;81.80;;;;;;4974611;28;20200;-78
2022/01/04 07:04:33;;;;;;;10.83;4.57;;;9.10;81.80;;;;;;4976371;28;20281;-78
2022/01/04 07:07:02;;;;;;;13.17;5.30;;;9.10;81.60;;;;;;4976871;28;20221;-77
2022/01/04 07:09:32;;;;;;;12.43;5.80;;;9.20;81.50;;;;;;4982264;28;20663;-78
2022/01/04 07:12:01;;;;;;;12.37;5.40;;;9.20;81.50;;;;;;4986704;28;20280;-78
2022/01/04 07:14:29;;;;;;;11.70;5.73;;;9.20;81.50;;;;;;4970764;28;20194;-77
2022/01/04 07:16:57;;;;;;;10.53;5.23;;;9.20;81.50;;;;;;4976717;28;20198;-79
2022/01/04 07:19:26;;;;;;;16.13;5.60;;;9.20;81.50;;;;;;4967406;28;20904;-78
2022/01/04 07:21:54;;;;;;;13.33;5.20;;;9.20;81.40;;;;;;4972466;28;20205;-77
2022/01/04 07:24:23;;;;;;;11.07;5.57;;;9.20;81.40;;;;;;4966589;28;20194;-78
2022/01/04 07:26:53;;;;;;;10.23;5.67;;;9.20;81.30;;;;;;4984398;28;20208;-77
2022/01/04 07:29:21;;;;;;;8.63;5.27;;;9.20;81.40;;;;;;4986856;28;20192;-78
2022/01/04 07:31:49;;;;;;;11.07;5.60;;;9.20;81.40;;;;;;4969977;28;20214;-78
2022/01/04 07:34:18;;;;;;;10.83;6.37;;;9.10;81.30;;;;;;4977599;28;20225;-78
2022/01/04 07:36:46;;;;;;;14.50;8.03;;;9.20;81.40;;;;;;4981287;28;20770;-78
2022/01/04 07:39:14;;;;;;;20.23;12.27;;;9.20;81.50;;;;;;4970546;28;20202;-78
2022/01/04 07:41:45;;;;;;;25.80;15.63;;;9.20;81.60;;;;;;4973268;28;20241;-77
2022/01/04 07:44:15;;;;;;;26.33;14.60;;;9.20;81.60;;;;;;4977088;28;20190;-80
2022/01/04 07:46:44;;;;;;;18.37;9.70;;;9.20;81.70;;;;;;4976445;28;20193;-77
2022/01/04 07:49:12;;;;;;;18.30;7.63;;;9.30;81.80;;;;;;4980895;28;20193;-77
2022/01/04 07:51:40;;;;;;;12.07;6.87;;;9.30;81.90;;;;;;4986690;28;20622;-77
2022/01/04 07:54:09;;;;;;;15.93;6.63;;;9.30;81.90;;;;;;4996229;28;20204;-77
2022/01/04 07:56:38;;;;;;;12.03;5.93;;;9.30;81.90;;;;;;4983104;28;20194;-77
2022/01/04 07:59:07;;;;;;;11.37;5.23;;;9.40;82.10;;;;;;4969655;28;20197;-77
2022/01/04 08:01:36;;;;;;;13.13;5.33;;;9.40;82.10;;;;;;4973754;28;20193;-76
2022/01/04 08:04:05;;;;;;;13.10;4.63;;;9.50;82.10;;;;;;4982524;28;20887;-76
2022/01/04 08:06:33;;;;;;;14.53;6.53;;;9.50;82.00;;;;;;4977871;28;20193;-76
2022/01/04 08:09:02;;;;;;;17.23;6.37;;;9.60;82.00;;;;;;4974559;28;20201;-77
2022/01/04 08:11:30;;;;;;;14.47;6.23;;;9.70;82.00;;;;;;4983490;28;20220;-77
2022/01/04 08:13:58;;;;;;;12.60;6.13;;;9.70;82.10;;;;;;4983753;28;20196;-78
2022/01/04 08:16:27;;;;;;;22.43;9.87;;;9.70;81.90;;;;;;4970847;28;20209;-77
2022/01/04 08:18:57;;;;;;;20.37;9.93;;;9.80;82.00;;;;;;4980153;28;20239;-78
2022/01/04 08:21:34;;;;;;;18.90;8.23;;;9.80;82.10;;;;;;4975469;28;20287;-77
2022/01/04 08:24:04;;;;;;;18.73;7.27;;;9.90;82.10;;;;;;4974731;28;20224;-76
2022/01/04 08:26:33;;;;;;;12.87;6.67;;;9.90;82.00;;;;;;4967761;28;20276;-77
2022/01/04 08:29:01;;;;;;;13.20;7.10;;;10.00;82.10;;;;;;4968781;28;20190;-76
2022/01/04 08:31:29;;;;;;;16.97;8.53;;;10.10;82.00;;;;;;4965994;28;20213;-77
2022/01/04 08:33:59;;;;;;;18.60;9.30;;;10.10;82.00;;;;;;4985477;28;20643;-78
2022/01/04 08:36:29;;;;;;;13.40;7.97;;;10.20;82.10;;;;;;4976572;28;20609;-78
2022/01/04 08:38:58;;;;;;;24.57;9.90;;;10.20;82.00;;;;;;4972318;28;20197;-78
2022/01/04 08:41:27;;;;;;;18.53;8.27;;;10.30;82.00;;;;;;4969827;28;20189;-79
2022/01/04 08:43:55;;;;;;;18.37;9.10;;;10.30;81.80;;;;;;4972496;28;20193;-77
2022/01/04 08:46:24;;;;;;;16.03;8.43;;;10.40;81.90;;;;;;4975369;28;20677;-77
2022/01/04 08:48:53;;;;;;;18.57;8.30;;;10.50;81.90;;;;;;4979647;28;20243;-77
2022/01/04 08:51:23;;;;;;;20.70;7.20;;;10.60;82.00;;;;;;4970921;28;20222;-77
2022/01/04 08:53:51;;;;;;;19.13;9.00;;;10.60;81.40;;;;;;4978211;28;20203;-79
2022/01/04 08:56:19;;;;;;;18.77;7.40;;;10.60;81.40;;;;;;4978175;28;20208;-76
2022/01/04 08:58:47;;;;;;;15.10;6.93;;;10.70;81.50;;;;;;4979169;28;20204;-77
2022/01/04 09:01:16;;;;;;;13.07;7.33;;;10.80;81.50;;;;;;4975729;28;20198;-77
2022/01/04 09:03:44;;;;;;;14.87;6.93;;;10.70;81.10;;;;;;4972672;28;20189;-76
2022/01/04 09:06:13;;;;;;;10.70;6.63;;;10.80;80.70;;;;;;4967295;28;20193;-77
2022/01/04 09:08:43;;;;;;;16.00;6.80;;;10.80;80.40;;;;;;4974394;28;20189;-76
2022/01/04 09:11:12;;;;;;;11.80;6.40;;;10.80;80.20;;;;;;4981791;28;20221;-76
2022/01/04 09:13:44;;;;;;;12.20;6.67;;;10.80;80.20;;;;;;4963473;28;20704;-79
2022/01/04 09:19:00;;;;;;;17.00;7.33;;;10.80;80.70;;;;;;4981899;28;20288;-77
2022/01/04 09:21:34;;;;;;;15.27;7.47;;;10.80;81.10;;;;;;4982766;28;20196;-77
2022/01/04 09:24:05;;;;;;;19.10;7.73;;;10.90;81.70;;;;;;4970509;28;20202;-77
2022/01/04 09:26:33;;;;;;;15.77;6.97;;;11.00;81.90;;;;;;4969652;28;20190;-77
2022/01/04 09:29:02;;;;;;;15.73;7.70;;;11.00;81.90;;;;;;4982304;28;20192;-76
2022/01/04 09:31:30;;;;;;;17.27;7.27;;;11.00;81.90;;;;;;4982534;28;20224;-78
2022/01/04 09:34:01;;;;;;;14.73;7.17;;;11.10;81.80;;;;;;4971418;28;20622;-76
2022/01/04 09:36:33;;;;;;;12.03;7.43;;;11.10;81.80;;;;;;4979610;28;20201;-76
2022/01/04 09:39:02;;;;;;;13.97;7.57;;;11.20;82.10;;;;;;4979672;28;20193;-76
2022/01/04 09:41:32;;;;;;;13.27;7.03;;;11.30;82.30;;;;;;4985035;28;20194;-76
2022/01/04 09:44:02;;;;;;;16.03;8.03;;;11.30;82.10;;;;;;4978409;28;20186;-77
2022/01/04 09:46:30;;;;;;;15.77;7.60;;;11.40;82.10;;;;;;4972635;28;20186;-77
2022/01/04 09:48:59;;;;;;;14.63;7.57;;;11.40;82.90;;;;;;4984396;28;20204;-78
2022/01/04 09:51:28;;;;;;;14.97;7.07;;;11.50;81.80;;;;;;4977213;28;20567;-78
2022/01/04 09:53:57;;;;;;;16.43;6.80;;;11.50;81.60;;;;;;4982106;28;20544;-76
2022/01/04 09:56:25;;;;;;;14.47;7.43;;;11.60;81.80;;;;;;4981575;28;20217;-77
2022/01/04 09:58:55;;;;;;;17.03;7.77;;;11.70;81.90;;;;;;4978010;28;20201;-77
2022/01/04 10:01:25;;;;;;;18.17;7.67;;;11.80;81.80;;;;;;4984140;28;20364;-77
2022/01/04 10:04:15;;;;;;;10.70;6.00;;;11.90;81.40;;;;;;4974639;28;20780;-77
2022/01/04 10:06:59;;;;;;;11.03;5.70;;;12.00;80.60;;;;;;4985034;28;20694;-77
2022/01/04 10:09:39;;;;;;;9.10;5.50;;;12.10;80.70;;;;;;4982019;28;20212;-78
2022/01/04 10:12:10;;;;;;;13.00;5.50;;;12.20;80.60;;;;;;4975940;28;20217;-77
2022/01/04 10:14:41;;;;;;;14.27;5.73;;;12.20;79.80;;;;;;4986862;28;20833;-78
2022/01/04 10:17:14;;;;;;;16.57;6.37;;;12.30;79.50;;;;;;4983527;28;20193;-76
2022/01/04 10:19:44;;;;;;;13.33;5.90;;;12.40;79.20;;;;;;4981726;28;20186;-78
2022/01/04 10:22:16;;;;;;;9.93;5.90;;;12.50;79.20;;;;;;4969124;28;20190;-78
2022/01/04 10:24:46;;;;;;;13.83;6.20;;;12.60;79.60;;;;;;4984492;28;20615;-79
2022/01/04 10:27:30;;;;;;;14.40;6.60;;;12.70;79.10;;;;;;4974817;28;20213;-77
2022/01/04 10:30:11;;;;;;;13.27;7.83;;;12.80;79.00;;;;;;4979409;28;20173;-74
2022/01/04 10:32:51;;;;;;;12.70;6.27;;;12.90;79.40;;;;;;4992322;28;20571;-75
2022/01/04 10:35:35;;;;;;;10.97;6.53;;;13.00;79.00;;;;;;4986318;28;20192;-75
2022/01/04 10:38:14;;;;;;;14.00;6.67;;;13.00;78.80;;;;;;4977233;28;20750;-75
2022/01/04 10:40:44;;;;;;;14.77;6.80;;;13.10;79.00;;;;;;4969029;28;20181;-76
2022/01/04 10:43:16;;;;;;;13.53;7.17;;;13.20;79.00;;;;;;4974964;28;20201;-75
2022/01/04 10:45:46;;;;;;;14.87;8.00;;;13.20;79.00;;;;;;4979196;28;20191;-76
2022/01/04 10:48:19;;;;;;;14.60;6.60;;;13.30;79.10;;;;;;4967848;28;20589;-75
2022/01/04 10:50:50;;;;;;;12.73;7.37;;;13.40;79.10;;;;;;4970773;28;20189;-75
2022/01/04 10:53:22;;;;;;;16.80;7.00;;;13.40;79.10;;;;;;4981668;28;20208;-76
2022/01/04 10:55:54;;;;;;;15.43;7.47;;;13.40;78.90;;;;;;4983567;28;20182;-75
2022/01/04 10:58:28;;;;;;;13.27;7.00;;;13.50;78.50;;;;;;4974913;28;20592;-76
2022/01/04 11:01:00;;;;;;;15.13;7.47;;;13.50;78.40;;;;;;4966177;28;20194;-75
2022/01/04 11:03:31;;;;;;;15.87;7.47;;;13.50;78.50;;;;;;4972941;28;20444;-77
2022/01/04 11:06:04;;;;;;;16.83;7.20;;;13.60;78.00;;;;;;4975338;28;20193;-75
2022/01/04 11:08:32;;;;;;;12.33;6.87;;;13.60;77.80;;;;;;4986114;28;20190;-77
2022/01/04 11:11:01;;;;;;;14.03;7.27;;;13.60;78.00;;;;;;4966827;28;20194;-76
2022/01/04 11:13:29;;;;;;;14.00;6.70;;;13.60;77.70;;;;;;4982046;28;20209;-76
2022/01/04 11:16:00;;;;;;;12.77;6.23;;;13.70;77.90;;;;;;4983254;28;20193;-76
2022/01/04 11:18:32;;;;;;;18.03;6.60;;;13.70;77.60;;;;;;4977747;28;20197;-77
2022/01/04 11:21:01;;;;;;;10.83;6.27;;;13.80;77.70;;;;;;4983485;28;20186;-76
2022/01/04 11:23:31;;;;;;;11.30;5.87;;;13.90;77.90;;;;;;4969393;28;20186;-76
2022/01/04 11:26:01;;;;;;;15.20;6.50;;;13.90;77.60;;;;;;4973916;28;21790;-77
2022/01/04 11:28:29;;;;;;;10.50;5.70;;;14.00;77.70;;;;;;4972668;28;20207;-77
2022/01/04 11:31:26;;;;;;;11.03;6.40;;;14.00;77.50;;;;;;4966200;28;20212;-77
2022/01/04 11:34:01;;;;;;;10.43;5.93;;;14.10;77.20;;;;;;4976421;28;20240;-77
2022/01/04 11:36:34;;;;;;;17.37;6.17;;;14.10;77.00;;;;;;4970577;28;20201;-78
2022/01/04 11:39:03;;;;;;;11.07;6.00;;;14.20;76.70;;;;;;4968238;28;20193;-78
2022/01/04 11:41:43;;;;;;;11.67;5.60;;;14.20;76.60;;;;;;4982792;28;20193;-78
2022/01/04 11:44:22;;;;;;;10.80;5.43;;;14.20;76.50;;;;;;4984388;28;20240;-78
2022/01/04 11:47:03;;;;;;;14.30;5.43;;;14.30;76.30;;;;;;4969658;28;20201;-78
2022/01/04 11:49:36;;;;;;;11.60;5.60;;;14.30;76.10;;;;;;4967360;28;20205;-78
2022/01/04 11:52:06;;;;;;;10.67;5.17;;;14.40;76.20;;;;;;4965435;28;20185;-78
2022/01/04 11:54:35;;;;;;;10.53;6.10;;;14.40;75.80;;;;;;4977747;28;20181;-78
2022/01/04 11:57:08;;;;;;;10.80;5.10;;;14.40;76.00;;;;;;4965738;28;20820;-78
2022/01/04 11:59:42;;;;;;;11.30;5.73;;;14.50;76.40;;;;;;4965424;28;20284;-78
2022/01/04 12:02:30;;;;;;;14.53;5.60;;;14.50;76.00;;;;;;4972713;28;20182;-78
2022/01/04 12:05:00;;;;;;;11.10;5.60;;;14.60;76.30;;;;;;4969649;28;20239;-78
2022/01/04 12:07:50;;;;;;;13.60;6.30;;;14.60;76.30;;;;;;4980452;28;20197;-78
2022/01/04 12:10:39;;;;;;;12.27;6.27;;;14.70;76.50;;;;;;4976920;28;20185;-78
2022/01/04 12:13:14;;;;;;;18.53;5.83;;;14.70;76.10;;;;;;4981427;28;20231;-77
2022/01/04 12:15:57;;;;;;;11.80;5.97;;;14.70;76.30;;;;;;4973603;28;20192;-78
2022/01/04 12:19:01;;;;;;;11.17;6.10;;;14.70;76.20;;;;;;4971740;28;20185;-79
2022/01/04 12:21:46;;;;;;;14.17;5.50;;;14.70;76.10;;;;;;4968696;28;20194;-79
2022/01/04 12:24:17;;;;;;;13.13;5.70;;;14.80;76.30;;;;;;4967297;28;20216;-79
2022/01/04 12:26:46;;;;;;;13.37;5.90;;;14.80;76.20;;;;;;4975163;28;20235;-78
2022/01/04 12:29:31;;;;;;;13.10;6.37;;;14.90;76.40;;;;;;4979218;28;20273;-78
2022/01/04 12:32:03;;;;;;;13.80;6.07;;;15.00;76.60;;;;;;4972419;28;20189;-78
2022/01/04 12:34:39;;;;;;;8.47;4.67;;;15.00;76.70;;;;;;4966216;28;20250;-79
2022/01/04 12:37:15;;;;;;;8.63;5.13;;;15.10;76.60;;;;;;4972056;28;20189;-78
2022/01/04 12:39:44;;;;;;;10.27;5.87;;;15.10;76.40;;;;;;4971418;28;20185;-79
2022/01/04 12:42:15;;;;;;;13.80;7.27;;;15.20;76.50;;;;;;4971181;28;20199;-78
2022/01/04 12:44:49;;;;;;;15.50;6.70;;;15.20;76.50;;;;;;4972333;28;20182;-79
2022/01/04 12:47:20;;;;;;;14.43;5.90;;;15.30;76.70;;;;;;4982461;28;20189;-78
2022/01/04 12:49:50;;;;;;;12.00;6.27;;;15.40;76.70;;;;;;4978707;28;20201;-79
2022/01/04 12:52:21;;;;;;;14.05;6.40;;;15.40;76.60;;;;;;4983391;28;20432;-78
2022/01/04 12:54:50;;;;;;;10.07;6.10;;;15.50;76.60;;;;;;4977008;28;20666;-78
2022/01/04 12:57:20;;;;;;;12.20;5.67;;;15.50;76.50;;;;;;4977546;28;20204;-79
2022/01/04 12:59:49;;;;;;;9.50;5.17;;;15.60;76.00;;;;;;4973588;28;20193;-79
2022/01/04 13:02:20;;;;;;;7.90;4.10;;;15.60;75.10;;;;;;4967860;28;20713;-78
2022/01/04 13:04:53;;;;;;;8.77;4.93;;;15.70;75.40;;;;;;4975643;28;20197;-79
2022/01/04 13:07:27;;;;;;;13.70;4.07;;;15.80;74.10;;;;;;4965132;28;20293;-78
2022/01/04 13:10:01;;;;;;;9.13;4.60;;;15.90;73.50;;;;;;4975836;28;20209;-79
2022/01/04 13:12:33;;;;;;;8.50;4.30;;;16.10;73.40;;;;;;4969958;28;20194;-78